createdAt,value
2022-11-18T00:01:26.595Z,5.14
2022-11-18T00:03:54.823Z,5.12
2022-11-18T00:06:24.653Z,5.24
2022-11-18T00:08:52.935Z,5.17
2022-11-18T00:11:41.757Z,5.03
2022-11-18T00:14:21.243Z,5.00
2022-11-18T00:16:52.880Z,5.00
2022-11-18T00:19:21.742Z,4.94
2022-11-18T00:21:50.190Z,4.97
2022-11-18T00:24:18.629Z,4.93
2022-11-18T00:26:47.202Z,5.00
2022-11-18T00:29:17.886Z,5.01
2022-11-18T00:31:46.238Z,5.03
2022-11-18T00:34:16.387Z,4.97
2022-11-18T00:36:45.948Z,4.94
2022-11-18T00:39:15.849Z,4.92
2022-11-18T00:41:58.188Z,4.97
2022-11-18T00:44:27.918Z,5.02
2022-11-18T00:46:56.457Z,5.00
2022-11-18T00:49:24.674Z,4.97
2022-11-18T00:51:53.081Z,4.98
2022-11-18T00:54:21.730Z,4.99
2022-11-18T00:56:50.272Z,5.01
2022-11-18T00:59:18.691Z,4.95
2022-11-18T01:01:49.286Z,4.95
2022-11-18T01:04:17.992Z,4.90
2022-11-18T01:06:46.325Z,4.93
2022-11-18T01:09:14.758Z,4.93
2022-11-18T01:12:00.578Z,4.89
2022-11-18T01:14:28.962Z,4.89
2022-11-18T01:16:58.773Z,4.98
2022-11-18T01:19:27.434Z,4.99
2022-11-18T01:21:56.619Z,4.97
2022-11-18T01:24:24.695Z,4.83
2022-11-18T01:26:52.948Z,4.81
2022-11-18T01:29:21.084Z,4.80
2022-11-18T01:32:17.264Z,4.85
2022-11-18T01:34:38.979Z,4.74
2022-11-18T01:37:07.031Z,4.77
2022-11-18T01:39:35.057Z,4.84
2022-11-18T01:42:03.513Z,4.87
2022-11-18T01:45:10.386Z,4.78
2022-11-18T01:47:43.586Z,4.82
2022-11-18T01:50:16.685Z,4.74
2022-11-18T01:52:51.257Z,4.79
2022-11-18T01:55:24.532Z,4.78
2022-11-18T01:57:59.471Z,4.72
2022-11-18T02:00:27.705Z,4.80
2022-11-18T02:02:55.927Z,4.87
2022-11-18T02:05:27.228Z,4.84
2022-11-18T02:07:55.360Z,4.89
2022-11-18T02:10:25.184Z,4.89
2022-11-18T02:12:54.823Z,4.84
2022-11-18T02:15:29.999Z,4.75
2022-11-18T02:18:05.754Z,4.68
2022-11-18T02:20:39.549Z,4.76
2022-11-18T02:23:46.503Z,4.65
2022-11-18T02:26:44.318Z,4.65
2022-11-18T02:29:19.168Z,4.69
2022-11-18T02:31:55.807Z,4.59
2022-11-18T02:34:35.585Z,4.60
2022-11-18T02:37:12.874Z,4.50
2022-11-18T02:39:46.516Z,4.54
2022-11-18T02:42:17.545Z,4.38
2022-11-18T02:44:53.643Z,4.43
2022-11-18T02:47:23.865Z,4.34
2022-11-18T02:49:56.623Z,4.38
2022-11-18T02:52:26.970Z,4.38
2022-11-18T02:54:56.815Z,4.19
2022-11-18T02:57:26.770Z,4.33
2022-11-18T02:59:56.278Z,4.39
2022-11-18T03:02:24.423Z,4.42
2022-11-18T03:04:57.067Z,4.44
2022-11-18T03:07:31.268Z,4.39
2022-11-18T03:10:03.760Z,4.51
2022-11-18T03:12:38.396Z,4.46
2022-11-18T03:15:18.350Z,4.37
2022-11-18T03:17:56.942Z,4.35
2022-11-18T03:20:28.073Z,4.35
2022-11-18T03:23:02.316Z,4.36
2022-11-18T03:25:38.483Z,4.31
2022-11-18T03:28:13.218Z,4.37
2022-11-18T03:30:47.361Z,4.42
2022-11-18T03:33:20.570Z,4.43
2022-11-18T03:35:54.022Z,4.51
2022-11-18T03:38:29.282Z,4.53
2022-11-18T03:41:02.824Z,4.55
2022-11-18T03:43:38.001Z,4.63
2022-11-18T03:46:11.711Z,4.70
2022-11-18T03:48:45.240Z,4.72
2022-11-18T03:51:18.554Z,4.65
2022-11-18T03:53:51.094Z,4.66
2022-11-18T03:56:23.078Z,4.71
2022-11-18T03:58:55.658Z,4.61
2022-11-18T04:01:35.632Z,4.63
2022-11-18T04:04:04.000Z,4.74
2022-11-18T04:06:38.791Z,4.79
2022-11-18T04:09:13.726Z,4.84
2022-11-18T04:12:05.504Z,4.82
2022-11-18T04:14:35.759Z,4.85
2022-11-18T04:17:10.670Z,4.82
2022-11-18T04:19:39.453Z,4.59
2022-11-18T04:22:11.685Z,4.76
2022-11-18T04:24:40.054Z,4.80
2022-11-18T04:27:08.855Z,4.77
2022-11-18T04:29:37.187Z,4.82
2022-11-18T04:32:08.008Z,4.67
2022-11-18T04:34:39.396Z,4.75
2022-11-18T04:37:08.049Z,4.72
2022-11-18T04:39:36.212Z,4.81
2022-11-18T04:42:04.461Z,4.73
2022-11-18T04:44:34.251Z,4.60
2022-11-18T04:47:05.046Z,4.64
2022-11-18T04:49:36.014Z,4.64
2022-11-18T04:52:04.632Z,4.64
2022-11-18T04:54:32.672Z,4.59
2022-11-18T04:57:01.698Z,4.62
2022-11-18T04:59:31.078Z,4.59
2022-11-18T05:02:01.305Z,4.60
2022-11-18T05:04:31.857Z,4.60
2022-11-18T05:07:03.083Z,4.48
2022-11-18T05:09:32.238Z,4.47
2022-11-18T05:12:18.522Z,4.45
2022-11-18T05:14:50.581Z,4.44
2022-11-18T05:17:20.067Z,4.53
2022-11-18T05:19:48.601Z,4.49
2022-11-18T05:22:18.404Z,4.48
2022-11-18T05:24:46.666Z,4.52
2022-11-18T05:27:16.078Z,4.52
2022-11-18T05:29:44.613Z,4.55
2022-11-18T05:32:13.232Z,4.55
2022-11-18T05:34:41.877Z,4.49
2022-11-18T05:37:10.488Z,4.57
2022-11-18T05:39:40.196Z,4.47
2022-11-18T05:42:26.239Z,4.53
2022-11-18T05:44:58.169Z,4.46
2022-11-18T05:47:27.257Z,4.51
2022-11-18T05:49:55.640Z,4.44
2022-11-18T05:52:23.765Z,4.44
2022-11-18T05:54:53.254Z,4.38
2022-11-18T05:57:21.701Z,4.36
2022-11-18T05:59:49.840Z,4.37
2022-11-18T06:02:23.202Z,4.35
2022-11-18T06:04:56.011Z,4.31
2022-11-18T06:07:31.142Z,4.34
2022-11-18T06:10:05.559Z,4.38
2022-11-18T06:12:40.317Z,4.37
2022-11-18T06:15:14.841Z,4.27
2022-11-18T06:17:48.434Z,4.31
2022-11-18T06:20:19.334Z,4.20
2022-11-18T06:22:48.460Z,4.15
2022-11-18T06:25:18.782Z,4.23
2022-11-18T06:27:48.521Z,4.23
2022-11-18T06:30:17.395Z,4.18
2022-11-18T06:32:46.830Z,4.16
2022-11-18T06:35:15.400Z,4.05
2022-11-18T06:37:43.692Z,4.10
2022-11-18T06:40:13.328Z,4.10
2022-11-18T06:43:00.669Z,4.13
2022-11-18T06:45:28.982Z,4.07
2022-11-18T06:47:57.635Z,4.17
2022-11-18T06:50:26.090Z,4.12
2022-11-18T06:52:54.683Z,4.08
2022-11-18T06:55:22.989Z,4.08
2022-11-18T06:57:52.457Z,3.96
2022-11-18T07:00:21.201Z,3.94
2022-11-18T07:02:49.609Z,4.05
2022-11-18T07:05:17.758Z,4.05
2022-11-18T07:07:46.038Z,4.06
2022-11-18T07:10:14.380Z,4.12
2022-11-18T07:12:42.534Z,3.99
2022-11-18T07:15:12.698Z,4.07
2022-11-18T07:17:40.828Z,4.10
2022-11-18T07:20:09.908Z,4.02
2022-11-18T07:22:38.566Z,4.06
2022-11-18T07:25:07.553Z,4.08
2022-11-18T07:27:35.696Z,4.09
2022-11-18T07:30:06.427Z,4.10
2022-11-18T07:32:36.070Z,4.10
2022-11-18T07:35:04.260Z,3.98
2022-11-18T07:37:32.567Z,4.07
2022-11-18T07:40:00.963Z,4.11
2022-11-18T07:42:29.097Z,3.97
2022-11-18T07:44:57.609Z,4.02
2022-11-18T07:47:25.907Z,4.03
2022-11-18T07:49:55.389Z,4.02
2022-11-18T07:52:23.528Z,4.04
2022-11-18T07:54:51.886Z,4.00
2022-11-18T07:57:22.788Z,4.04
2022-11-18T07:59:51.029Z,4.01
2022-11-18T08:02:19.245Z,4.07
2022-11-18T08:04:47.465Z,4.07
2022-11-18T08:07:17.108Z,4.06
2022-11-18T08:09:45.303Z,4.03
2022-11-18T08:12:13.455Z,4.06
2022-11-18T08:14:41.615Z,4.04
2022-11-18T08:17:09.920Z,4.08
2022-11-18T08:19:40.805Z,4.02
2022-11-18T08:22:08.970Z,4.05
2022-11-18T08:24:38.772Z,4.09
2022-11-18T08:27:07.029Z,4.10
2022-11-18T08:29:35.568Z,4.03
2022-11-18T08:32:03.792Z,4.13
2022-11-18T08:34:32.040Z,4.12
2022-11-18T08:37:00.317Z,4.08
2022-11-18T08:39:28.588Z,4.11
2022-11-18T08:42:00.081Z,4.02
2022-11-18T08:44:28.294Z,4.11
2022-11-18T08:46:56.844Z,4.15
2022-11-18T08:49:29.584Z,4.15
2022-11-18T08:52:00.620Z,4.15
2022-11-18T08:54:28.647Z,4.13
2022-11-18T08:56:58.430Z,4.19
2022-11-18T08:59:27.014Z,4.27
2022-11-18T09:01:55.260Z,4.28
2022-11-18T09:04:23.458Z,4.25
2022-11-18T09:06:51.928Z,4.33
2022-11-18T09:09:20.234Z,4.35
2022-11-18T09:11:48.714Z,4.29
2022-11-18T09:17:06.915Z,4.46
2022-11-18T09:19:47.176Z,4.49
2022-11-18T09:22:16.061Z,4.59
2022-11-18T09:24:45.224Z,4.52
2022-11-18T09:27:16.956Z,4.61
2022-11-18T09:29:47.372Z,4.62
2022-11-18T09:32:15.654Z,4.62
2022-11-18T09:34:43.784Z,4.67
2022-11-18T09:37:13.226Z,4.64
2022-11-18T09:39:41.356Z,4.66
2022-11-18T09:42:22.682Z,4.58
2022-11-18T09:45:13.031Z,4.65
2022-11-18T09:47:42.384Z,4.82
2022-11-18T09:50:47.895Z,4.72
2022-11-18T09:53:11.711Z,4.75
2022-11-18T09:55:41.910Z,4.84
2022-11-18T09:58:18.956Z,4.83
2022-11-18T10:00:48.431Z,4.88
2022-11-18T10:03:27.204Z,4.87
2022-11-18T10:06:00.263Z,4.91
2022-11-18T10:08:33.128Z,4.99
2022-11-18T10:11:07.912Z,4.93
2022-11-18T10:13:47.804Z,4.95
2022-11-18T10:16:33.171Z,5.00
2022-11-18T10:19:11.304Z,5.04
2022-11-18T10:21:50.213Z,5.00
2022-11-18T10:24:21.608Z,5.03
2022-11-18T10:26:55.560Z,5.12
2022-11-18T10:29:23.959Z,5.15
2022-11-18T10:32:04.718Z,5.13
2022-11-18T10:34:34.596Z,5.26
2022-11-18T10:37:04.278Z,5.28
2022-11-18T10:39:32.675Z,5.29
2022-11-18T10:42:04.194Z,5.17
2022-11-18T10:44:35.692Z,5.26
2022-11-18T10:47:27.055Z,5.17
2022-11-18T10:49:57.154Z,5.36
2022-11-18T10:52:25.542Z,5.41
2022-11-18T10:55:22.318Z,5.40
2022-11-18T10:57:53.645Z,5.46
2022-11-18T11:00:37.098Z,5.55
2022-11-18T11:03:30.686Z,5.58
2022-11-18T11:06:23.817Z,5.55
2022-11-18T11:08:53.880Z,5.66
2022-11-18T11:11:26.863Z,5.81
2022-11-18T11:14:02.156Z,5.82
2022-11-18T11:16:32.180Z,5.79
2022-11-18T11:19:05.557Z,5.71
2022-11-18T11:21:33.774Z,5.87
2022-11-18T11:24:02.021Z,5.89
2022-11-18T11:29:36.591Z,5.83
2022-11-18T11:32:16.993Z,5.89
2022-11-18T11:34:56.458Z,5.99
2022-11-18T11:37:34.493Z,6.13
2022-11-18T11:40:21.765Z,6.02
2022-11-18T11:43:00.278Z,5.96
2022-11-18T11:45:36.912Z,5.95
2022-11-18T11:48:25.086Z,5.92
2022-11-18T11:51:04.376Z,5.97
2022-11-18T11:54:08.473Z,5.98
2022-11-18T11:56:42.144Z,5.99
2022-11-18T11:59:24.715Z,5.92
2022-11-18T12:02:08.569Z,5.92
2022-11-18T12:04:43.884Z,5.98
2022-11-18T12:07:19.852Z,5.94
2022-11-18T12:10:03.924Z,5.95
2022-11-18T12:12:39.143Z,5.93
2022-11-18T12:15:21.731Z,5.91
2022-11-18T12:17:58.105Z,5.88
2022-11-18T12:20:43.821Z,5.84
2022-11-18T12:23:24.163Z,5.86
2022-11-18T12:25:58.747Z,5.86
2022-11-18T12:28:31.017Z,5.84
2022-11-18T12:31:40.557Z,5.89
2022-11-18T12:34:30.228Z,5.88
2022-11-18T12:36:58.699Z,5.94
2022-11-18T12:39:58.753Z,5.94
2022-11-18T12:43:06.040Z,5.89
2022-11-18T12:45:51.738Z,5.90
2022-11-18T12:48:42.318Z,5.84
2022-11-18T12:51:41.818Z,5.94
2022-11-18T12:54:31.315Z,5.77
2022-11-18T12:57:02.773Z,5.80
2022-11-18T12:59:39.331Z,5.74
2022-11-18T13:02:25.036Z,5.77
2022-11-18T13:05:08.463Z,5.76
2022-11-18T13:08:03.430Z,5.75
2022-11-18T13:10:34.786Z,5.61
2022-11-18T13:13:04.711Z,5.61
2022-11-18T13:15:50.423Z,5.64
2022-11-18T13:18:20.270Z,5.64
2022-11-18T13:20:57.843Z,5.46
2022-11-18T13:23:47.086Z,5.65
2022-11-18T13:26:21.112Z,5.68
2022-11-18T13:29:22.484Z,5.64
2022-11-18T13:32:00.619Z,5.55
2022-11-18T13:34:30.719Z,5.70
2022-11-18T13:37:01.389Z,5.71
2022-11-18T13:39:32.435Z,5.76
2022-11-18T13:42:02.321Z,5.71
2022-11-18T13:44:33.274Z,5.68
2022-11-18T13:47:08.479Z,5.71
2022-11-18T13:49:53.725Z,5.63
2022-11-18T13:52:27.715Z,5.77
2022-11-18T13:54:57.014Z,5.80
2022-11-18T13:57:27.126Z,5.71
2022-11-18T13:59:57.197Z,5.71
2022-11-18T14:02:25.432Z,5.68
2022-11-18T14:04:57.131Z,5.71
2022-11-18T14:07:29.821Z,5.71
2022-11-18T14:10:01.124Z,5.66
2022-11-18T14:12:32.739Z,5.66
2022-11-18T14:15:16.931Z,5.61
2022-11-18T14:17:53.155Z,5.53
2022-11-18T14:20:21.759Z,5.69
2022-11-18T14:22:54.338Z,5.69
2022-11-18T14:25:27.014Z,5.69
2022-11-18T14:27:57.400Z,5.74
2022-11-18T14:30:36.348Z,5.69
2022-11-18T14:33:15.891Z,5.87
2022-11-18T14:35:45.504Z,5.88
2022-11-18T14:41:07.071Z,5.76
2022-11-18T14:43:35.631Z,5.77
2022-11-18T14:46:07.293Z,5.80
2022-11-18T14:48:36.017Z,5.80
2022-11-18T14:51:04.339Z,5.70
2022-11-18T14:53:32.401Z,5.72
2022-11-18T14:56:01.524Z,5.71
2022-11-18T14:58:29.781Z,5.67
2022-11-18T15:00:58.090Z,5.65
2022-11-18T15:03:27.656Z,5.55
2022-11-18T15:05:56.048Z,5.54
2022-11-18T15:08:24.157Z,5.55
2022-11-18T15:10:52.324Z,5.63
2022-11-18T15:13:20.560Z,5.53
2022-11-18T15:15:51.665Z,5.47
2022-11-18T15:18:19.794Z,5.49
2022-11-18T15:20:49.372Z,5.28
2022-11-18T15:23:17.586Z,5.45
2022-11-18T15:25:45.823Z,5.43
2022-11-18T15:28:14.166Z,5.47
2022-11-18T15:30:42.404Z,5.54
2022-11-18T15:33:10.680Z,5.44
2022-11-18T15:35:39.122Z,5.47
2022-11-18T15:38:08.860Z,5.43
2022-11-18T15:40:38.916Z,5.45
2022-11-18T15:43:07.312Z,5.36
2022-11-18T15:45:38.894Z,5.13
2022-11-18T15:48:10.667Z,5.29
2022-11-18T15:50:38.837Z,5.20
2022-11-18T15:53:08.724Z,5.21
2022-11-18T15:55:37.317Z,5.27
2022-11-18T15:58:05.643Z,5.35
2022-11-18T16:00:33.909Z,5.19
2022-11-18T16:03:02.246Z,5.22
2022-11-18T16:05:30.493Z,5.19
2022-11-18T16:07:58.777Z,4.96
2022-11-18T16:10:46.139Z,5.10
2022-11-18T16:13:14.565Z,4.90
2022-11-18T16:15:48.357Z,5.04
2022-11-18T16:18:19.916Z,4.79
2022-11-18T16:20:48.184Z,4.85
2022-11-18T16:23:16.599Z,4.98
2022-11-18T16:25:47.401Z,4.85
2022-11-18T16:28:18.591Z,4.89
2022-11-18T16:31:07.594Z,4.86
2022-11-18T16:33:35.864Z,4.94
2022-11-18T16:36:04.456Z,4.96
2022-11-18T16:38:32.704Z,5.03
2022-11-18T16:41:22.326Z,4.88
2022-11-18T16:43:50.911Z,5.02
2022-11-18T16:46:19.310Z,4.92
2022-11-18T16:48:47.571Z,4.92
2022-11-18T16:51:22.745Z,4.90
2022-11-18T16:53:54.466Z,4.89
2022-11-18T16:56:25.892Z,4.87
2022-11-18T16:58:58.743Z,4.70
2022-11-18T17:01:29.601Z,4.90
2022-11-18T17:04:00.760Z,4.91
2022-11-18T17:06:29.845Z,4.92
2022-11-18T17:08:59.183Z,4.96
2022-11-18T17:11:29.050Z,4.83
2022-11-18T17:13:58.395Z,4.83
2022-11-18T17:16:27.672Z,4.78
2022-11-18T17:18:57.501Z,4.84
2022-11-18T17:21:26.951Z,4.66
2022-11-18T17:23:55.921Z,4.78
2022-11-18T17:26:25.981Z,4.68
2022-11-18T17:28:56.296Z,4.64
2022-11-18T17:31:26.024Z,4.59
2022-11-18T17:33:55.785Z,4.45
2022-11-18T17:36:26.170Z,4.50
2022-11-18T17:38:55.679Z,4.56
2022-11-18T17:41:44.139Z,4.42
2022-11-18T17:44:15.377Z,4.52
2022-11-18T17:46:44.517Z,4.50
2022-11-18T17:49:14.617Z,4.54
2022-11-18T17:51:42.832Z,4.43
2022-11-18T17:54:11.445Z,4.37
2022-11-18T17:56:40.204Z,4.30
2022-11-18T17:59:08.804Z,4.37
2022-11-18T18:01:38.717Z,4.07
2022-11-18T18:04:07.442Z,4.19
2022-11-18T18:06:35.725Z,4.34
2022-11-18T18:09:04.052Z,4.29
2022-11-18T18:11:32.326Z,4.24
2022-11-18T18:14:15.072Z,4.24
2022-11-18T18:16:46.562Z,4.08
2022-11-18T18:19:16.800Z,4.15
2022-11-18T18:21:45.531Z,4.14
2022-11-18T18:24:14.903Z,4.06
2022-11-18T18:26:43.099Z,4.00
2022-11-18T18:29:12.562Z,3.99
2022-11-18T18:31:41.115Z,3.92
2022-11-18T18:34:10.993Z,3.95
2022-11-18T18:36:39.575Z,3.89
2022-11-18T18:39:08.094Z,3.83
2022-11-18T18:41:37.052Z,3.86
2022-11-18T18:44:05.780Z,3.89
2022-11-18T18:46:33.065Z,3.82
2022-11-18T18:49:09.154Z,3.71
2022-11-18T18:51:40.859Z,3.74
2022-11-18T18:54:12.213Z,3.67
2022-11-18T18:56:41.172Z,3.68
2022-11-18T18:59:10.171Z,3.68
2022-11-18T19:01:39.247Z,3.74
2022-11-18T19:04:08.692Z,3.70
2022-11-18T19:09:28.058Z,3.61
2022-11-18T19:12:14.043Z,3.63
2022-11-18T19:14:42.585Z,3.67
2022-11-18T19:17:12.345Z,3.70
2022-11-18T19:19:59.929Z,3.59
2022-11-18T19:22:30.594Z,3.58
2022-11-18T19:24:59.407Z,3.63
2022-11-18T19:27:28.273Z,3.60
2022-11-18T19:29:56.465Z,3.59
2022-11-18T19:32:24.649Z,3.50
2022-11-18T19:34:53.163Z,3.41
2022-11-18T19:37:21.652Z,3.60
2022-11-18T19:39:51.057Z,3.51
2022-11-18T19:42:19.199Z,3.50
2022-11-18T19:44:47.442Z,3.53
2022-11-18T19:47:15.639Z,3.53
2022-11-18T19:49:43.933Z,3.50
2022-11-18T19:52:12.132Z,3.50
2022-11-18T19:54:40.758Z,3.56
2022-11-18T19:57:10.561Z,3.50
2022-11-18T19:59:38.738Z,3.44
2022-11-18T20:02:08.371Z,3.43
2022-11-18T20:04:36.869Z,3.36
2022-11-18T20:07:07.189Z,3.43
2022-11-18T20:09:35.524Z,3.38
2022-11-18T20:12:03.694Z,3.41
2022-11-18T20:14:33.203Z,3.41
2022-11-18T20:17:01.336Z,3.43
2022-11-18T20:19:29.446Z,3.40
2022-11-18T20:21:57.656Z,3.44
2022-11-18T20:24:26.043Z,3.42
2022-11-18T20:26:54.312Z,3.46
2022-11-18T20:29:22.734Z,3.47
2022-11-18T20:31:53.653Z,3.51
2022-11-18T20:34:22.278Z,3.58
2022-11-18T20:36:53.335Z,3.52
2022-11-18T20:39:21.951Z,3.55
2022-11-18T20:42:06.922Z,3.61
2022-11-18T20:44:35.179Z,3.58
2022-11-18T20:47:05.177Z,3.58
2022-11-18T20:49:35.182Z,3.65
2022-11-18T20:52:03.477Z,3.65
2022-11-18T20:54:31.500Z,3.70
2022-11-18T20:56:59.690Z,3.53
2022-11-18T20:59:27.841Z,3.54
2022-11-18T21:01:55.931Z,3.58
2022-11-18T21:04:27.683Z,3.63
2022-11-18T21:07:00.986Z,3.57
2022-11-18T21:09:32.104Z,3.45
2022-11-18T21:12:01.128Z,3.65
2022-11-18T21:14:28.458Z,3.71
2022-11-18T21:17:00.771Z,3.65
2022-11-18T21:19:32.926Z,3.66
2022-11-18T21:22:00.326Z,3.68
2022-11-18T21:24:30.389Z,3.64
2022-11-18T21:26:59.734Z,3.71
2022-11-18T21:29:29.593Z,3.73
2022-11-18T21:32:00.763Z,3.72
2022-11-18T21:34:31.021Z,3.71
2022-11-18T21:36:59.457Z,3.70
2022-11-18T21:39:27.781Z,3.72
2022-11-18T21:41:57.382Z,3.66
2022-11-18T21:44:28.148Z,3.67
2022-11-18T21:46:57.063Z,3.65
2022-11-18T21:49:25.104Z,3.66
2022-11-18T21:51:54.650Z,3.61
2022-11-18T21:54:22.946Z,3.73
2022-11-18T21:56:51.124Z,3.63
2022-11-18T21:59:19.417Z,3.64
2022-11-18T22:01:47.923Z,3.75
2022-11-18T22:04:37.911Z,3.81
2022-11-18T22:07:07.940Z,3.74
2022-11-18T22:09:36.929Z,3.78
2022-11-18T22:12:07.144Z,3.79
2022-11-18T22:14:36.113Z,3.87
2022-11-18T22:17:04.630Z,3.82
2022-11-18T22:19:32.967Z,3.77
2022-11-18T22:22:01.926Z,3.73
2022-11-18T22:24:31.486Z,3.69
2022-11-18T22:26:59.633Z,3.78
2022-11-18T22:29:27.920Z,3.71
2022-11-18T22:31:58.738Z,3.77
2022-11-18T22:34:28.731Z,3.68
2022-11-18T22:36:57.033Z,3.61
2022-11-18T22:39:25.143Z,3.59
2022-11-18T22:42:12.076Z,3.61
2022-11-18T22:44:41.438Z,3.56
2022-11-18T22:47:09.470Z,3.63
2022-11-18T22:49:38.083Z,3.53
2022-11-18T22:52:06.849Z,3.50
2022-11-18T22:54:39.682Z,3.60
2022-11-18T22:57:10.081Z,3.62
2022-11-18T22:59:39.421Z,3.54
2022-11-18T23:02:07.695Z,3.51
2022-11-18T23:04:36.669Z,3.55
2022-11-18T23:07:05.181Z,3.50
2022-11-18T23:09:33.441Z,3.57
2022-11-18T23:12:19.383Z,3.56
2022-11-18T23:14:49.084Z,3.44
2022-11-18T23:17:17.383Z,3.56
2022-11-18T23:19:47.099Z,3.52
2022-11-18T23:22:15.824Z,3.57
2022-11-18T23:24:44.091Z,3.58
2022-11-18T23:27:13.317Z,3.49
2022-11-18T23:29:41.527Z,3.53
2022-11-18T23:32:11.192Z,3.56
2022-11-18T23:34:39.293Z,3.50
2022-11-18T23:37:07.846Z,3.47
2022-11-18T23:39:37.587Z,3.54
2022-11-18T23:42:06.121Z,3.44
2022-11-18T23:44:46.784Z,3.36
2022-11-18T23:47:16.255Z,3.32
2022-11-18T23:49:44.398Z,3.36
2022-11-18T23:52:12.939Z,3.40
2022-11-18T23:54:41.118Z,3.27
2022-11-18T23:57:09.397Z,3.36
2022-11-18T23:59:37.991Z,3.27
